sensor_id;sensor_type;location;lat;lon;timestamp;pressure;altitude;pressure_sealevel;temperature;humidity
61318;BME280;47201;40.428;-8.436;2022-10-13T00:00:40;101331.63;;;16.05;100.00
61318;BME280;47201;40.428;-8.436;2022-10-13T00:02:40;101329.03;;;16.03;100.00
61318;BME280;47201;40.428;-8.436;2022-10-13T00:04:41;101332.56;;;16.00;100.00
61318;BME280;47201;40.428;-8.436;2022-10-13T00:06:41;101329.88;;;16.04;100.00
61318;BME280;47201;40.428;-8.436;2022-10-13T00:08:42;101329.88;;;16.04;100.00
61318;BME280;47201;40.428;-8.436;2022-10-13T00:10:43;101320.19;;;16.06;100.00
61318;BME280;47201;40.428;-8.436;2022-10-13T00:12:45;101314.91;;;16.06;100.00
61318;BME280;47201;40.428;-8.436;2022-10-13T00:14:46;101309.72;;;15.99;100.00
61318;BME280;47201;40.428;-8.436;2022-10-13T00:16:46;101313.38;;;15.89;100.00
61318;BME280;47201;40.428;-8.436;2022-10-13T00:18:47;101309.94;;;15.84;100.00
61318;BME280;47201;40.428;-8.436;2022-10-13T00:20:48;101309.09;;;15.80;100.00
61318;BME280;47201;40.428;-8.436;2022-10-13T00:22:49;101306.50;;;15.76;100.00
61318;BME280;47201;40.428;-8.436;2022-10-13T00:24:52;101309.19;;;15.74;100.00
61318;BME280;47201;40.428;-8.436;2022-10-13T00:26:53;101303.00;;;15.74;100.00
61318;BME280;47201;40.428;-8.436;2022-10-13T00:28:54;101301.16;;;15.82;100.00
61318;BME280;47201;40.428;-8.436;2022-10-13T00:30:55;101294.00;;;15.92;100.00
61318;BME280;47201;40.428;-8.436;2022-10-13T00:32:55;101298.38;;;15.93;100.00
61318;BME280;47201;40.428;-8.436;2022-10-13T00:34:56;101291.47;;;15.85;100.00
61318;BME280;47201;40.428;-8.436;2022-10-13T00:36:56;101295.06;;;15.77;100.00
61318;BME280;47201;40.428;-8.436;2022-10-13T00:38:57;101303.94;;;15.71;100.00
61318;BME280;47201;40.428;-8.436;2022-10-13T00:40:58;101307.56;;;15.61;100.00
61318;BME280;47201;40.428;-8.436;2022-10-13T00:42:59;101307.56;;;15.61;100.00
61318;BME280;47201;40.428;-8.436;2022-10-13T00:47:00;101309.22;;;15.69;100.00
61318;BME280;47201;40.428;-8.436;2022-10-13T00:49:03;101310.84;;;15.80;100.00
61318;BME280;47201;40.428;-8.436;2022-10-13T00:51:05;101309.06;;;15.83;100.00
61318;BME280;47201;40.428;-8.436;2022-10-13T00:53:06;101313.44;;;15.86;100.00
61318;BME280;47201;40.428;-8.436;2022-10-13T00:55:09;101308.16;;;15.86;100.00
61318;BME280;47201;40.428;-8.436;2022-10-13T00:57:10;101305.50;;;15.88;100.00
61318;BME280;47201;40.428;-8.436;2022-10-13T00:59:13;101314.28;;;15.90;100.00
61318;BME280;47201;40.428;-8.436;2022-10-13T01:01:18;101311.59;;;15.91;100.00
61318;BME280;47201;40.428;-8.436;2022-10-13T01:03:19;101315.09;;;15.92;100.00
61318;BME280;47201;40.428;-8.436;2022-10-13T01:05:20;101316.91;;;15.88;100.00
61318;BME280;47201;40.428;-8.436;2022-10-13T01:07:21;101311.59;;;15.91;100.00
61318;BME280;47201;40.428;-8.436;2022-10-13T01:09:21;101316.97;;;15.85;100.00
61318;BME280;47201;40.428;-8.436;2022-10-13T01:11:25;101324.00;;;15.80;100.00
61318;BME280;47201;40.428;-8.436;2022-10-13T01:13:40;101324.09;;;15.74;100.00
61318;BME280;47201;40.428;-8.436;2022-10-13T01:31:15;101325.13;;;15.62;100.00
61318;BME280;47201;40.428;-8.436;2022-10-13T01:33:24;101324.28;;;15.60;100.00
61318;BME280;47201;40.428;-8.436;2022-10-13T01:37:45;101320.84;;;15.53;100.00
61318;BME280;47201;40.428;-8.436;2022-10-13T01:39:51;101312.09;;;15.51;100.00
61318;BME280;47201;40.428;-8.436;2022-10-13T01:41:55;101313.84;;;15.52;100.00
61318;BME280;47201;40.428;-8.436;2022-10-13T01:46:08;101329.69;;;15.50;100.00
61318;BME280;47201;40.428;-8.436;2022-10-13T01:48:11;101332.31;;;15.50;100.00
61318;BME280;47201;40.428;-8.436;2022-10-13T01:50:15;101324.44;;;15.47;100.00
61318;BME280;47201;40.428;-8.436;2022-10-13T01:52:16;101327.94;;;15.48;100.00
61318;BME280;47201;40.428;-8.436;2022-10-13T01:54:18;101321.72;;;15.55;100.00
61318;BME280;47201;40.428;-8.436;2022-10-13T01:56:19;101316.41;;;15.57;100.00
61318;BME280;47201;40.428;-8.436;2022-10-13T01:58:20;101322.56;;;15.55;100.00
61318;BME280;47201;40.428;-8.436;2022-10-13T02:00:21;101319.09;;;15.55;100.00
61318;BME280;47201;40.428;-8.436;2022-10-13T02:02:27;101318.13;;;15.59;100.00
61318;BME280;47201;40.428;-8.436;2022-10-13T02:06:50;101312.88;;;15.59;100.00
61318;BME280;47201;40.428;-8.436;2022-10-13T02:10:55;101326.91;;;15.61;100.00
61318;BME280;47201;40.428;-8.436;2022-10-13T02:12:59;101329.53;;;15.61;100.00
61318;BME280;47201;40.428;-8.436;2022-10-13T02:15:02;101333.97;;;15.58;100.00
61318;BME280;47201;40.428;-8.436;2022-10-13T02:17:04;101333.97;;;15.58;100.00
61318;BME280;47201;40.428;-8.436;2022-10-13T02:19:05;101339.19;;;15.62;100.00
61318;BME280;47201;40.428;-8.436;2022-10-13T02:21:06;101338.25;;;15.66;100.00
61318;BME280;47201;40.428;-8.436;2022-10-13T02:23:11;101344.31;;;15.73;100.00
61318;BME280;47201;40.428;-8.436;2022-10-13T02:25:12;101346.03;;;15.77;100.00
61318;BME280;47201;40.428;-8.436;2022-10-13T02:27:13;101346.88;;;15.79;100.00
61318;BME280;47201;40.428;-8.436;2022-10-13T02:29:14;101343.31;;;15.82;100.00
61318;BME280;47201;40.428;-8.436;2022-10-13T02:31:15;101342.59;;;15.70;100.00
61318;BME280;47201;40.428;-8.436;2022-10-13T02:33:16;101342.75;;;15.60;100.00
61318;BME280;47201;40.428;-8.436;2022-10-13T02:35:17;101347.22;;;15.50;100.00
61318;BME280;47201;40.428;-8.436;2022-10-13T02:37:17;101340.28;;;15.43;100.00
61318;BME280;47201;40.428;-8.436;2022-10-13T02:39:18;101346.44;;;15.42;100.00
61318;BME280;47201;40.428;-8.436;2022-10-13T02:41:19;101336.69;;;15.50;100.00
61318;BME280;47201;40.428;-8.436;2022-10-13T02:43:19;101341.91;;;15.56;100.00
61318;BME280;47201;40.428;-8.436;2022-10-13T02:45:20;101340.03;;;15.64;100.00
61318;BME280;47201;40.428;-8.436;2022-10-13T02:47:22;101341.69;;;15.71;100.00
61318;BME280;47201;40.428;-8.436;2022-10-13T02:49:23;101338.13;;;15.76;100.00
61318;BME280;47201;40.428;-8.436;2022-10-13T02:51:23;101339.88;;;15.77;100.00
61318;BME280;47201;40.428;-8.436;2022-10-13T02:53:24;101342.47;;;15.81;100.00
61318;BME280;47201;40.428;-8.436;2022-10-13T02:55:24;101346.00;;;15.79;100.00
61318;BME280;47201;40.428;-8.436;2022-10-13T02:57:29;101341.59;;;15.79;100.00
61318;BME280;47201;40.428;-8.436;2022-10-13T02:59:31;101337.19;;;15.80;100.00
61318;BME280;47201;40.428;-8.436;2022-10-13T03:01:32;101339.03;;;15.75;100.00
61318;BME280;47201;40.428;-8.436;2022-10-13T03:03:32;101332.00;;;15.74;100.00
61318;BME280;47201;40.428;-8.436;2022-10-13T03:05:33;101324.06;;;15.75;100.00
61318;BME280;47201;40.428;-8.436;2022-10-13T03:07:33;101331.19;;;15.68;100.00
61318;BME280;47201;40.428;-8.436;2022-10-13T03:09:34;101327.63;;;15.73;100.00
61318;BME280;47201;40.428;-8.436;2022-10-13T03:11:35;101324.88;;;15.83;100.00
61318;BME280;47201;40.428;-8.436;2022-10-13T03:13:36;101338.91;;;15.85;100.00
61318;BME280;47201;40.428;-8.436;2022-10-13T03:15:39;101338.06;;;15.83;100.00
61318;BME280;47201;40.428;-8.436;2022-10-13T03:17:41;101342.53;;;15.77;100.00
61318;BME280;47201;40.428;-8.436;2022-10-13T03:19:42;101347.00;;;15.70;100.00
61318;BME280;47201;40.428;-8.436;2022-10-13T03:21:45;101347.03;;;15.68;100.00
61318;BME280;47201;40.428;-8.436;2022-10-13T03:23:46;101350.69;;;15.55;100.00
61318;BME280;47201;40.428;-8.436;2022-10-13T03:25:47;101354.31;;;15.48;100.00
61318;BME280;47201;40.428;-8.436;2022-10-13T03:27:47;101356.88;;;15.51;100.00
61318;BME280;47201;40.428;-8.436;2022-10-13T03:29:48;101356.94;;;15.46;100.00
61318;BME280;47201;40.428;-8.436;2022-10-13T03:31:48;101360.47;;;15.44;100.00
61318;BME280;47201;40.428;-8.436;2022-10-13T03:33:49;101365.72;;;15.45;100.00
61318;BME280;47201;40.428;-8.436;2022-10-13T03:35:50;101360.44;;;15.45;100.00
61318;BME280;47201;40.428;-8.436;2022-10-13T03:37:51;101362.19;;;15.46;100.00
61318;BME280;47201;40.428;-8.436;2022-10-13T03:39:51;101357.75;;;15.50;100.00
61318;BME280;47201;40.428;-8.436;2022-10-13T03:41:52;101366.63;;;15.44;100.00
61318;BME280;47201;40.428;-8.436;2022-10-13T03:43:52;101354.50;;;15.29;100.00
61318;BME280;47201;40.428;-8.436;2022-10-13T03:45:57;101361.66;;;15.18;100.00
61318;BME280;47201;40.428;-8.436;2022-10-13T03:47:57;101353.78;;;15.13;100.00
61318;BME280;47201;40.428;-8.436;2022-10-13T03:49:58;101356.50;;;15.07;100.00
61318;BME280;47201;40.428;-8.436;2022-10-13T03:51:59;101354.84;;;14.92;100.00
61318;BME280;47201;40.428;-8.436;2022-10-13T03:53:59;101354.91;;;14.89;100.00
61318;BME280;47201;40.428;-8.436;2022-10-13T03:56:00;101354.06;;;14.82;100.00
61318;BME280;47201;40.428;-8.436;2022-10-13T03:58:03;101352.38;;;14.77;100.00
61318;BME280;47201;40.428;-8.436;2022-10-13T04:00:04;101347.09;;;14.77;100.00
61318;BME280;47201;40.428;-8.436;2022-10-13T04:02:12;101347.97;;;14.75;100.00
61318;BME280;47201;40.428;-8.436;2022-10-13T04:04:13;101358.41;;;14.86;100.00
61318;BME280;47201;40.428;-8.436;2022-10-13T04:06:15;101351.47;;;14.79;100.00
61318;BME280;47201;40.428;-8.436;2022-10-13T04:08:15;101353.25;;;14.75;100.00
61318;BME280;47201;40.428;-8.436;2022-10-13T04:10:16;101357.63;;;14.77;100.00
61318;BME280;47201;40.428;-8.436;2022-10-13T04:12:16;101355.97;;;14.68;100.00
61318;BME280;47201;40.428;-8.436;2022-10-13T04:14:17;101360.31;;;14.73;100.00
61318;BME280;47201;40.428;-8.436;2022-10-13T04:16:19;101365.56;;;14.72;100.00
61318;BME280;47201;40.428;-8.436;2022-10-13T04:18:20;101370.00;;;14.67;100.00
61318;BME280;47201;40.428;-8.436;2022-10-13T04:20:20;101375.25;;;14.67;100.00
61318;BME280;47201;40.428;-8.436;2022-10-13T04:22:21;101374.38;;;14.68;100.00
61318;BME280;47201;40.428;-8.436;2022-10-13T04:24:21;101379.66;;;14.66;100.00
61318;BME280;47201;40.428;-8.436;2022-10-13T04:26:23;101381.38;;;14.67;100.00
61318;BME280;47201;40.428;-8.436;2022-10-13T04:28:23;101388.41;;;14.68;100.00
61318;BME280;47201;40.428;-8.436;2022-10-13T04:30:24;101382.25;;;14.69;100.00
61318;BME280;47201;40.428;-8.436;2022-10-13T04:32:24;101387.53;;;14.68;100.00
61318;BME280;47201;40.428;-8.436;2022-10-13T04:34:25;101376.09;;;14.70;100.00
61318;BME280;47201;40.428;-8.436;2022-10-13T04:36:25;101375.19;;;14.73;100.00
61318;BME280;47201;40.428;-8.436;2022-10-13T04:38:26;101369.06;;;14.71;100.00
61318;BME280;47201;40.428;-8.436;2022-10-13T04:40:27;101367.34;;;14.65;100.00
61318;BME280;47201;40.428;-8.436;2022-10-13T04:42:28;101380.50;;;14.65;100.00
61318;BME280;47201;40.428;-8.436;2022-10-13T04:44:28;101390.16;;;14.63;100.00
61318;BME280;47201;40.428;-8.436;2022-10-13T04:46:30;101386.66;;;14.64;100.00
61318;BME280;47201;40.428;-8.436;2022-10-13T04:48:33;101384.03;;;14.69;100.00
61318;BME280;47201;40.428;-8.436;2022-10-13T04:50:34;101387.53;;;14.68;100.00
61318;BME280;47201;40.428;-8.436;2022-10-13T04:52:35;101393.66;;;14.65;100.00
61318;BME280;47201;40.428;-8.436;2022-10-13T04:54:36;101391.91;;;14.67;100.00
61318;BME280;47201;40.428;-8.436;2022-10-13T04:56:36;101389.25;;;14.70;100.00
61318;BME280;47201;40.428;-8.436;2022-10-13T04:58:37;101385.78;;;14.65;100.00
61318;BME280;47201;40.428;-8.436;2022-10-13T05:00:38;101386.66;;;14.66;100.00
61318;BME280;47201;40.428;-8.436;2022-10-13T05:02:38;101393.72;;;14.59;100.00
61318;BME280;47201;40.428;-8.436;2022-10-13T05:04:39;101400.69;;;14.63;100.00
61318;BME280;47201;40.428;-8.436;2022-10-13T05:06:40;101390.16;;;14.63;100.00
61318;BME280;47201;40.428;-8.436;2022-10-13T05:08:41;101397.19;;;14.64;100.00
61318;BME280;47201;40.428;-8.436;2022-10-13T05:10:54;101392.81;;;14.66;100.00
61318;BME280;47201;40.428;-8.436;2022-10-13T05:12:54;101403.34;;;14.62;100.00
61318;BME280;47201;40.428;-8.436;2022-10-13T05:14:55;101398.97;;;14.59;100.00
61318;BME280;47201;40.428;-8.436;2022-10-13T05:16:56;101405.13;;;14.58;100.00
61318;BME280;47201;40.428;-8.436;2022-10-13T05:18:56;101406.00;;;14.57;100.00
61318;BME280;47201;40.428;-8.436;2022-10-13T05:21:04;101406.88;;;14.59;100.00
61318;BME280;47201;40.428;-8.436;2022-10-13T05:23:04;101415.66;;;14.53;100.00
61318;BME280;47201;40.428;-8.436;2022-10-13T05:25:05;101411.31;;;14.51;100.00
61318;BME280;47201;40.428;-8.436;2022-10-13T05:27:08;101406.03;;;14.51;100.00
61318;BME280;47201;40.428;-8.436;2022-10-13T05:29:08;101416.63;;;14.41;100.00
61318;BME280;47201;40.428;-8.436;2022-10-13T05:33:09;101421.84;;;14.44;100.00
61318;BME280;47201;40.428;-8.436;2022-10-13T05:35:10;101416.56;;;14.48;100.00
61318;BME280;47201;40.428;-8.436;2022-10-13T05:37:13;101416.63;;;14.40;100.00
61318;BME280;47201;40.428;-8.436;2022-10-13T05:39:16;101419.25;;;14.38;100.00
61318;BME280;47201;40.428;-8.436;2022-10-13T05:41:16;101423.63;;;14.39;100.00
61318;BME280;47201;40.428;-8.436;2022-10-13T05:43:17;101418.41;;;14.33;100.00
61318;BME280;47201;40.428;-8.436;2022-10-13T05:45:18;101418.41;;;14.33;100.00
61318;BME280;47201;40.428;-8.436;2022-10-13T05:47:18;101412.28;;;14.31;100.00
61318;BME280;47201;40.428;-8.436;2022-10-13T05:49:19;101411.44;;;14.26;100.00
61318;BME280;47201;40.428;-8.436;2022-10-13T05:51:23;101418.47;;;14.24;100.00
61318;BME280;47201;40.428;-8.436;2022-10-13T05:53:29;101418.47;;;14.25;100.00
61318;BME280;47201;40.428;-8.436;2022-10-13T05:55:30;101416.72;;;14.21;100.00
61318;BME280;47201;40.428;-8.436;2022-10-13T05:57:35;101412.38;;;14.17;100.00
61318;BME280;47201;40.428;-8.436;2022-10-13T05:59:37;101406.25;;;14.14;100.00
61318;BME280;47201;40.428;-8.436;2022-10-13T06:01:38;101415.88;;;14.16;100.00
61318;BME280;47201;40.428;-8.436;2022-10-13T06:03:39;101410.63;;;14.16;100.00
61318;BME280;47201;40.428;-8.436;2022-10-13T06:05:41;101414.13;;;14.15;100.00
61318;BME280;47201;40.428;-8.436;2022-10-13T06:07:44;101408.03;;;14.15;100.00
61318;BME280;47201;40.428;-8.436;2022-10-13T06:09:45;101401.88;;;14.17;100.00
61318;BME280;47201;40.428;-8.436;2022-10-13T06:11:46;101404.50;;;14.17;100.00
61318;BME280;47201;40.428;-8.436;2022-10-13T06:13:46;101400.97;;;14.17;100.00
61318;BME280;47201;40.428;-8.436;2022-10-13T06:15:47;101403.63;;;14.15;100.00
61318;BME280;47201;40.428;-8.436;2022-10-13T06:17:47;101396.59;;;14.14;100.00
61318;BME280;47201;40.428;-8.436;2022-10-13T06:19:48;101387.84;;;14.12;100.00
61318;BME280;47201;40.428;-8.436;2022-10-13T06:21:48;101394.00;;;14.09;100.00
61318;BME280;47201;40.428;-8.436;2022-10-13T06:23:49;101393.97;;;14.16;100.00
61318;BME280;47201;40.428;-8.436;2022-10-13T06:25:52;101398.34;;;14.18;100.00
61318;BME280;47201;40.428;-8.436;2022-10-13T06:27:54;101403.53;;;14.31;100.00
61318;BME280;47201;40.428;-8.436;2022-10-13T06:29:55;101406.09;;;14.43;100.00
61318;BME280;47201;40.428;-8.436;2022-10-13T06:31:55;101406.06;;;14.48;100.00
61318;BME280;47201;40.428;-8.436;2022-10-13T06:33:57;101401.63;;;14.54;100.00
61318;BME280;47201;40.428;-8.436;2022-10-13T06:36:01;101400.75;;;14.57;100.00
61318;BME280;47201;40.428;-8.436;2022-10-13T06:38:02;101394.56;;;14.61;100.00
61318;BME280;47201;40.428;-8.436;2022-10-13T06:40:03;101411.22;;;14.62;100.00
61318;BME280;47201;40.428;-8.436;2022-10-13T06:42:04;101401.63;;;14.53;100.00
61318;BME280;47201;40.428;-8.436;2022-10-13T06:44:11;101407.72;;;14.63;100.00
61318;BME280;47201;40.428;-8.436;2022-10-13T06:46:11;101413.00;;;14.59;100.00
61318;BME280;47201;40.428;-8.436;2022-10-13T06:48:12;101405.09;;;14.56;100.00
61318;BME280;47201;40.428;-8.436;2022-10-13T06:50:12;101408.63;;;14.58;100.00
61318;BME280;47201;40.428;-8.436;2022-10-13T06:52:13;101413.88;;;14.62;100.00
61318;BME280;47201;40.428;-8.436;2022-10-13T06:54:14;101422.59;;;14.64;100.00
61318;BME280;47201;40.428;-8.436;2022-10-13T06:56:15;101432.25;;;14.63;100.00
61318;BME280;47201;40.428;-8.436;2022-10-13T06:58:15;101435.78;;;14.62;100.00
61318;BME280;47201;40.428;-8.436;2022-10-13T07:00:16;101449.81;;;14.64;100.00
61318;BME280;47201;40.428;-8.436;2022-10-13T07:02:17;101450.66;;;14.65;100.00
61318;BME280;47201;40.428;-8.436;2022-10-13T07:04:17;101458.56;;;14.69;100.00
61318;BME280;47201;40.428;-8.436;2022-10-13T07:06:18;101465.59;;;14.67;100.00
61318;BME280;47201;40.428;-8.436;2022-10-13T07:08:19;101466.56;;;14.51;100.00
61318;BME280;47201;40.428;-8.436;2022-10-13T07:10:19;101464.84;;;14.43;100.00
61318;BME280;47201;40.428;-8.436;2022-10-13T07:12:20;101462.28;;;14.33;100.00
61318;BME280;47201;40.428;-8.436;2022-10-13T07:14:21;101481.56;;;14.24;100.00
61318;BME280;47201;40.428;-8.436;2022-10-13T07:16:21;101487.75;;;14.18;100.00
61318;BME280;47201;40.428;-8.436;2022-10-13T07:18:22;101479.84;;;14.21;100.00
61318;BME280;47201;40.428;-8.436;2022-10-13T07:20:23;101476.34;;;14.22;100.00
61318;BME280;47201;40.428;-8.436;2022-10-13T07:22:26;101478.13;;;14.17;100.00
61318;BME280;47201;40.428;-8.436;2022-10-13T07:24:27;101488.63;;;14.19;100.00
61318;BME280;47201;40.428;-8.436;2022-10-13T07:26:27;101486.84;;;14.25;100.00
61318;BME280;47201;40.428;-8.436;2022-10-13T07:28:28;101489.44;;;14.30;100.00
61318;BME280;47201;40.428;-8.436;2022-10-13T07:30:28;101493.84;;;14.25;100.00
61318;BME280;47201;40.428;-8.436;2022-10-13T07:32:30;101490.34;;;14.23;100.00
61318;BME280;47201;40.428;-8.436;2022-10-13T07:34:33;101484.22;;;14.21;100.00
61318;BME280;47201;40.428;-8.436;2022-10-13T07:36:34;101490.38;;;14.17;100.00
61318;BME280;47201;40.428;-8.436;2022-10-13T07:38:35;101490.38;;;14.17;100.00
61318;BME280;47201;40.428;-8.436;2022-10-13T07:40:35;101492.09;;;14.24;100.00
61318;BME280;47201;40.428;-8.436;2022-10-13T07:42:37;101496.47;;;14.26;100.00
61318;BME280;47201;40.428;-8.436;2022-10-13T07:44:39;101495.59;;;14.26;100.00
61318;BME280;47201;40.428;-8.436;2022-10-13T07:46:39;101490.34;;;14.26;100.00
61318;BME280;47201;40.428;-8.436;2022-10-13T07:48:40;101491.22;;;14.28;100.00
61318;BME280;47201;40.428;-8.436;2022-10-13T07:50:41;101488.59;;;14.23;100.00
61318;BME280;47201;40.428;-8.436;2022-10-13T07:52:41;101492.09;;;14.24;100.00
61318;BME280;47201;40.428;-8.436;2022-10-13T07:54:45;101491.19;;;14.30;100.00
61318;BME280;47201;40.428;-8.436;2022-10-13T07:56:45;101483.34;;;14.20;100.00
61318;BME280;47201;40.428;-8.436;2022-10-13T07:58:46;101496.47;;;14.26;100.00
61318;BME280;47201;40.428;-8.436;2022-10-13T08:00:54;101502.59;;;14.30;100.00
61318;BME280;47201;40.428;-8.436;2022-10-13T08:02:55;101498.19;;;14.32;100.00
61318;BME280;47201;40.428;-8.436;2022-10-13T08:04:55;101503.44;;;14.38;100.00
61318;BME280;47201;40.428;-8.436;2022-10-13T08:06:56;101508.66;;;14.48;100.00
61318;BME280;47201;40.428;-8.436;2022-10-13T08:08:57;101502.47;;;14.58;100.00
61318;BME280;47201;40.428;-8.436;2022-10-13T08:11:03;101506.84;;;14.59;100.00
61318;BME280;47201;40.428;-8.436;2022-10-13T08:13:08;101508.59;;;14.62;100.00
61318;BME280;47201;40.428;-8.436;2022-10-13T08:15:09;101523.47;;;14.73;100.00
61318;BME280;47201;40.428;-8.436;2022-10-13T08:17:10;101523.41;;;14.81;100.00
61318;BME280;47201;40.428;-8.436;2022-10-13T08:19:12;101524.25;;;14.88;100.00
61318;BME280;47201;40.428;-8.436;2022-10-13T08:21:14;101530.38;;;14.90;100.00
61318;BME280;47201;40.428;-8.436;2022-10-13T08:23:16;101532.97;;;14.95;100.00
61318;BME280;47201;40.428;-8.436;2022-10-13T08:25:23;101533.88;;;14.95;100.00
61318;BME280;47201;40.428;-8.436;2022-10-13T08:27:24;101546.09;;;14.99;100.00
61318;BME280;47201;40.428;-8.436;2022-10-13T08:29:25;101542.53;;;15.10;100.00
61318;BME280;47201;40.428;-8.436;2022-10-13T08:31:25;101545.13;;;15.13;100.00
61318;BME280;47201;40.428;-8.436;2022-10-13T08:33:28;101546.81;;;15.25;100.00
61318;BME280;47201;40.428;-8.436;2022-10-13T08:35:29;101543.25;;;15.32;100.00
61318;BME280;47201;40.428;-8.436;2022-10-13T08:37:29;101551.06;;;15.41;100.00
61318;BME280;47201;40.428;-8.436;2022-10-13T08:39:30;101558.06;;;15.44;100.00
61318;BME280;47201;40.428;-8.436;2022-10-13T08:41:31;101545.72;;;15.49;100.00
61318;BME280;47201;40.428;-8.436;2022-10-13T08:43:36;101554.47;;;15.59;100.00
61318;BME280;47201;40.428;-8.436;2022-10-13T08:45:37;101550.09;;;15.56;100.00
61318;BME280;47201;40.428;-8.436;2022-10-13T08:49:43;101558.91;;;15.49;100.00
61318;BME280;47201;40.428;-8.436;2022-10-13T08:51:45;101552.75;;;15.53;100.00
61318;BME280;47201;40.428;-8.436;2022-10-13T08:53:46;101552.75;;;15.53;100.00
61318;BME280;47201;40.428;-8.436;2022-10-13T08:55:51;101559.69;;;15.60;100.00
61318;BME280;47201;40.428;-8.436;2022-10-13T08:57:54;101562.25;;;15.71;100.00
61318;BME280;47201;40.428;-8.436;2022-10-13T08:59:59;101568.25;;;15.90;100.00
61318;BME280;47201;40.428;-8.436;2022-10-13T09:02:00;101571.72;;;15.97;100.00
61318;BME280;47201;40.428;-8.436;2022-10-13T09:06:26;101570.56;;;16.20;100.00
61318;BME280;47201;40.428;-8.436;2022-10-13T09:08:29;101574.91;;;16.25;100.00
61318;BME280;47201;40.428;-8.436;2022-10-13T09:10:32;101572.31;;;16.22;100.00
61318;BME280;47201;40.428;-8.436;2022-10-13T09:12:32;101577.50;;;16.28;100.00
61318;BME280;47201;40.428;-8.436;2022-10-13T09:14:34;101568.63;;;16.36;100.00
61318;BME280;47201;40.428;-8.436;2022-10-13T09:16:38;101572.06;;;16.42;100.00
61318;BME280;47201;40.428;-8.436;2022-10-13T09:18:42;101578.25;;;16.41;100.00
61318;BME280;47201;40.428;-8.436;2022-10-13T09:20:49;101575.59;;;16.43;100.00
61318;BME280;47201;40.428;-8.436;2022-10-13T09:23:00;101581.81;;;16.36;100.00
61318;BME280;47201;40.428;-8.436;2022-10-13T09:27:13;101574.50;;;16.59;100.00
61318;BME280;47201;40.428;-8.436;2022-10-13T09:29:15;101578.72;;;16.73;100.00
61318;BME280;47201;40.428;-8.436;2022-10-13T09:31:24;101579.50;;;16.81;100.00
61318;BME280;47201;40.428;-8.436;2022-10-13T09:33:25;101574.22;;;16.81;100.00
61318;BME280;47201;40.428;-8.436;2022-10-13T09:35:25;101578.53;;;16.87;100.00
61318;BME280;47201;40.428;-8.436;2022-10-13T09:37:26;101580.44;;;16.75;100.00
61318;BME280;47201;40.428;-8.436;2022-10-13T09:39:28;101585.91;;;16.63;100.00
61318;BME280;47201;40.428;-8.436;2022-10-13T09:41:29;101580.81;;;16.46;100.00
61318;BME280;47201;40.428;-8.436;2022-10-13T09:45:30;101578.25;;;16.41;100.00
61318;BME280;47201;40.428;-8.436;2022-10-13T09:47:31;101573.03;;;16.37;100.00
61318;BME280;47201;40.428;-8.436;2022-10-13T09:49:38;101574.81;;;16.31;100.00
61318;BME280;47201;40.428;-8.436;2022-10-13T09:51:42;101573.81;;;16.45;100.00
61318;BME280;47201;40.428;-8.436;2022-10-13T09:53:52;101577.22;;;16.52;100.00
61318;BME280;47201;40.428;-8.436;2022-10-13T09:56:06;101581.63;;;16.49;100.00
61318;BME280;47201;40.428;-8.436;2022-10-13T09:58:09;101578.91;;;16.57;100.00
61318;BME280;47201;40.428;-8.436;2022-10-13T10:04:35;101585.56;;;16.88;100.00
61318;BME280;47201;40.428;-8.436;2022-10-13T10:06:37;101594.16;;;17.05;100.00
61318;BME280;47201;40.428;-8.436;2022-10-13T10:08:40;101587.84;;;17.14;100.00
61318;BME280;47201;40.428;-8.436;2022-10-13T10:10:46;101584.38;;;17.10;100.00
61318;BME280;47201;40.428;-8.436;2022-10-13T10:12:47;101586.75;;;17.29;100.00
61318;BME280;47201;40.428;-8.436;2022-10-13T10:14:47;101590.16;;;17.37;100.00
61318;BME280;47201;40.428;-8.436;2022-10-13T10:16:52;101586.47;;;17.46;100.00
61318;BME280;47201;40.428;-8.436;2022-10-13T10:18:59;101589.28;;;17.37;100.00
61318;BME280;47201;40.428;-8.436;2022-10-13T10:21:07;101597.19;;;17.38;100.00
61318;BME280;47201;40.428;-8.436;2022-10-13T10:23:26;101594.28;;;17.55;100.00
61318;BME280;47201;40.428;-8.436;2022-10-13T10:27:37;101584.25;;;17.73;100.00
61318;BME280;47201;40.428;-8.436;2022-10-13T10:29:49;101588.09;;;17.56;100.00
61318;BME280;47201;40.428;-8.436;2022-10-13T10:35:56;101583.09;;;17.89;100.00
61318;BME280;47201;40.428;-8.436;2022-10-13T10:44:25;101576.13;;;17.85;100.00
61318;BME280;47201;40.428;-8.436;2022-10-13T10:46:32;101579.78;;;17.76;100.00
61318;BME280;47201;40.428;-8.436;2022-10-13T10:48:35;101572.75;;;17.77;100.00
61318;BME280;47201;40.428;-8.436;2022-10-13T10:50:36;101570.09;;;17.77;100.00
61318;BME280;47201;40.428;-8.436;2022-10-13T10:52:46;101567.28;;;17.88;100.00
61318;BME280;47201;40.428;-8.436;2022-10-13T10:55:01;101567.19;;;17.92;100.00
61318;BME280;47201;40.428;-8.436;2022-10-13T10:57:12;101568.81;;;18.01;100.00
61318;BME280;47201;40.428;-8.436;2022-10-13T11:01:27;101567.66;;;18.16;100.00
61318;BME280;47201;40.428;-8.436;2022-10-13T11:07:54;101565.66;;;18.70;100.00
61318;BME280;47201;40.428;-8.436;2022-10-13T11:11:56;101570.28;;;19.01;100.00
61318;BME280;47201;40.428;-8.436;2022-10-13T11:14:08;101572.50;;;18.80;100.00
61318;BME280;47201;40.428;-8.436;2022-10-13T11:20:56;101577.47;;;19.33;100.00
61318;BME280;47201;40.428;-8.436;2022-10-13T11:25:02;101565.63;;;19.48;100.00
61318;BME280;47201;40.428;-8.436;2022-10-13T11:29:17;101561.03;;;19.91;100.00
61318;BME280;47201;40.428;-8.436;2022-10-13T11:31:23;101561.66;;;20.01;100.00
61318;BME280;47201;40.428;-8.436;2022-10-13T11:33:50;101565.56;;;19.86;100.00